< < Back
Terminal Aerodrome Forecast


Current Version              Previous Versions:   1  2  3  4  5  6  7  8  9  

Terminal Aerodrome Forecast

991
FTUS42 KFFC 281354 AAA
TAFATL
TAF AMD
KATL 281354Z 2814/2918 07008KT P6SM SCT050 SCT100
     FM281900 07010KT P6SM SCT060
     FM290100 08005KT P6SM SCT250
     FM291400 08009KT P6SM SCT045=



Latest METAR

922
SAUS70 KWBC 281600 RRM
MTRATL
METAR KATL 281552Z 05010KT 10SM FEW030 SCT055 SCT250 29/22 A3019 RMK AO2
SLP210 T02890217


USA.gov is the U.S. government's official web portal to all federal, state and local government web resources and services.